Time;durP1;ratioP1;P1;durP2;ratioP2;P2;SDS_P1;SDS_P2;PMS_P1;PMS_P2;Temp;Humidity;BMP_temperature;BMP_pressure;BME280_temperature;BME280_humidity;BME280_pressure;Samples;Min_cycle;Max_cycle;Signal;HPM_P1;HPM_P2
2021/10/13 00:01:20;;;;;;;4.10;1.50;;;8.60;99.90;;;;;;8371526;28;20059;-71
2021/10/13 00:05:22;;;;;;;4.70;1.70;;;8.50;99.90;;;;;;8375995;28;20049;-72
2021/10/13 00:09:24;;;;;;;5.10;1.92;;;8.40;99.90;;;;;;8390439;28;20040;-71
2021/10/13 00:13:26;;;;;;;6.55;2.20;;;8.40;99.90;;;;;;8385805;28;20045;-71
2021/10/13 00:17:27;;;;;;;3.78;1.73;;;8.40;99.90;;;;;;8389855;28;20052;-71
2021/10/13 00:21:29;;;;;;;5.28;2.05;;;8.30;99.90;;;;;;8381893;28;20109;-71
2021/10/13 00:25:31;;;;;;;3.70;1.85;;;8.30;99.90;;;;;;8372233;28;20055;-71
2021/10/13 00:29:36;;;;;;;4.13;1.25;;;8.30;99.90;;;;;;8383172;28;20450;-71
2021/10/13 00:33:37;;;;;;;3.67;1.60;;;8.20;99.90;;;;;;8364087;28;20496;-71
2021/10/13 00:37:39;;;;;;;3.83;1.70;;;8.20;99.90;;;;;;8384864;28;20096;-71
2021/10/13 00:41:41;;;;;;;6.82;2.15;;;8.20;99.90;;;;;;8387472;28;20402;-71
2021/10/13 00:45:43;;;;;;;;;;;8.10;99.90;;;;;;8387463;28;20044;-71
2021/10/13 00:49:47;;;;;;;;;;;8.10;99.90;;;;;;8372913;28;19950;-71
2021/10/13 00:53:49;;;;;;;;;;;8.00;99.90;;;;;;8388051;28;19921;-71
2021/10/13 00:57:57;;;;;;;;;;;8.00;99.90;;;;;;8380161;28;20003;-72
2021/10/13 01:02:03;;;;;;;;;;;8.00;99.90;;;;;;8385130;28;19973;-71
2021/10/13 01:06:37;;;;;;;;;;;8.00;99.90;;;;;;8387254;28;20279;-71
2021/10/13 01:11:00;;;;;;;;;;;7.90;99.90;;;;;;8346804;28;19928;-71
2021/10/13 01:15:08;;;;;;;;;;;7.90;99.90;;;;;;8387884;28;19947;-71
2021/10/13 01:19:12;;;;;;;;;;;7.90;99.90;;;;;;8384255;28;19935;-72
2021/10/13 01:23:26;;;;;;;;;;;7.80;99.90;;;;;;8380149;28;19931;-71
2021/10/13 01:27:40;;;;;;;;;;;7.80;99.90;;;;;;8387831;28;20288;-71
2021/10/13 01:31:53;;;;;;;;;;;7.80;99.90;;;;;;8391279;28;20134;-71
2021/10/13 01:35:58;;;;;;;;;;;7.70;99.90;;;;;;8389542;28;20360;-71
2021/10/13 01:40:01;;;;;;;;;;;7.70;99.90;;;;;;8381445;28;19928;-71
2021/10/13 01:44:03;;;;;;;;;;;7.70;99.90;;;;;;8380555;28;20265;-71
2021/10/13 01:48:08;;;;;;;;;;;7.70;99.90;;;;;;8386007;28;19920;-71
2021/10/13 01:52:10;;;;;;;;;;;7.70;99.90;;;;;;8384371;28;19921;-71
2021/10/13 01:56:13;;;;;;;;;;;7.70;99.90;;;;;;8370734;28;20339;-71
2021/10/13 02:00:16;;;;;;;;;;;7.70;99.90;;;;;;8387865;28;19928;-71
2021/10/13 02:04:19;;;;;;;;;;;7.70;99.90;;;;;;8370923;28;19920;-71
2021/10/13 02:08:22;;;;;;;;;;;7.70;99.90;;;;;;8379758;28;19924;-71
2021/10/13 02:12:25;;;;;;;;;;;7.70;99.90;;;;;;8374332;28;19921;-71
2021/10/13 02:16:27;;;;;;;;;;;7.70;99.90;;;;;;8394838;28;19929;-71
2021/10/13 02:20:30;;;;;;;;;;;7.80;99.90;;;;;;8387738;28;19920;-71
2021/10/13 02:24:36;;;;;;;;;;;7.80;99.90;;;;;;8408561;28;19961;-71
2021/10/13 02:28:40;;;;;;;;;;;7.80;99.90;;;;;;8389958;28;19925;-71
2021/10/13 02:32:42;;;;;;;;;;;7.80;99.90;;;;;;8388799;28;20116;-71
2021/10/13 02:36:43;;;;;;;;;;;7.80;99.90;;;;;;8396039;28;19924;-71
2021/10/13 02:40:45;;;;;;;;;;;7.90;99.90;;;;;;8395229;28;19994;-71
2021/10/13 02:44:47;;;;;;;;;;;7.90;99.90;;;;;;8389614;28;19931;-71
2021/10/13 02:48:53;;;;;;;;;;;7.90;99.90;;;;;;8388370;28;19928;-71
2021/10/13 02:52:59;;;;;;;;;;;7.90;99.90;;;;;;8373778;28;19921;-71
2021/10/13 02:57:01;;;;;;;;;;;7.90;99.90;;;;;;8388284;28;19932;-71
2021/10/13 03:01:03;;;;;;;;;;;7.80;99.90;;;;;;8393068;28;19924;-71
2021/10/13 03:05:09;;;;;;;;;;;7.80;99.90;;;;;;8394624;28;19927;-71
2021/10/13 03:09:10;;;;;;;;;;;7.80;99.90;;;;;;8383828;28;19981;-71
2021/10/13 03:13:14;;;;;;;;;;;7.80;99.90;;;;;;8394865;28;19940;-71
2021/10/13 03:17:16;;;;;;;;;;;7.70;99.90;;;;;;8391292;28;19928;-71
2021/10/13 03:21:19;;;;;;;;;;;7.70;99.90;;;;;;8365533;28;19931;-71
2021/10/13 03:25:25;;;;;;;;;;;7.70;99.90;;;;;;8387089;28;20376;-71
2021/10/13 03:29:26;;;;;;;;;;;7.70;99.90;;;;;;8390408;28;19931;-71
2021/10/13 03:33:28;;;;;;;;;;;7.60;99.90;;;;;;8386855;28;20359;-71
2021/10/13 03:37:30;;;;;;;;;;;7.60;99.90;;;;;;8387993;28;20009;-71
2021/10/13 03:41:33;;;;;;;;;;;7.50;99.90;;;;;;8389841;28;19928;-71
2021/10/13 03:45:35;;;;;;;;;;;7.50;99.90;;;;;;8392792;28;19981;-71
2021/10/13 03:49:37;;;;;;;;;;;7.50;99.90;;;;;;8406403;28;19921;-71
2021/10/13 03:53:38;;;;;;;;;;;7.50;99.90;;;;;;8392825;28;19927;-71
2021/10/13 03:57:40;;;;;;;;;;;7.50;99.90;;;;;;8385433;28;20383;-71
2021/10/13 04:01:42;;;;;;;;;;;7.60;99.90;;;;;;8383702;28;19921;-71
2021/10/13 04:05:44;;;;;;;;;;;7.50;99.90;;;;;;8387028;28;20428;-71
2021/10/13 04:09:45;;;;;;;;;;;7.50;99.90;;;;;;8378146;28;20421;-71
2021/10/13 04:13:47;;;;;;;;;;;7.50;99.90;;;;;;8387574;28;19920;-71
2021/10/13 04:17:49;;;;;;;;;;;7.50;99.90;;;;;;8403778;28;19920;-71
2021/10/13 04:21:50;;;;;;;;;;;7.50;99.90;;;;;;8376295;28;19921;-71
2021/10/13 04:25:52;;;;;;;;;;;7.50;99.90;;;;;;8388588;28;19920;-71
2021/10/13 04:29:54;;;;;;;;;;;7.50;99.90;;;;;;8386828;28;19920;-71
2021/10/13 04:33:55;;;;;;;;;;;7.50;99.90;;;;;;8389217;28;19921;-71
2021/10/13 04:37:57;;;;;;;;;;;7.50;99.90;;;;;;8391157;28;19925;-71
2021/10/13 04:41:59;;;;;;;;;;;7.50;99.90;;;;;;8389362;28;19951;-71
2021/10/13 04:46:00;;;;;;;;;;;7.50;99.90;;;;;;8389997;28;19928;-71
2021/10/13 04:50:02;;;;;;;;;;;7.50;99.90;;;;;;8385146;28;19920;-71
2021/10/13 04:54:04;;;;;;;;;;;7.50;99.90;;;;;;8385355;28;20372;-71
2021/10/13 04:58:06;;;;;;;;;;;7.50;99.90;;;;;;8401034;28;19982;-71
2021/10/13 05:02:07;;;;;;;;;;;7.50;99.90;;;;;;8384242;28;20283;-71
2021/10/13 05:06:09;;;;;;;;;;;7.60;99.90;;;;;;8371602;28;19932;-71
2021/10/13 05:10:11;;;;;;;;;;;7.50;99.90;;;;;;8390009;28;19921;-71
2021/10/13 05:14:12;;;;;;;;;;;7.50;99.90;;;;;;8402216;28;19935;-71
2021/10/13 05:18:14;;;;;;;;;;;7.50;99.90;;;;;;8378145;28;19924;-71
2021/10/13 05:22:16;;;;;;;;;;;7.50;99.90;;;;;;8364806;28;19944;-71
2021/10/13 05:26:18;;;;;;;;;;;7.50;99.90;;;;;;8382415;28;19928;-72
2021/10/13 05:30:19;;;;;;;;;;;7.40;99.90;;;;;;8382608;28;19940;-71
2021/10/13 05:34:21;;;;;;;;;;;7.40;99.90;;;;;;8386877;28;20010;-71
2021/10/13 05:38:23;;;;;;;;;;;7.40;99.90;;;;;;8385186;28;19931;-71
2021/10/13 05:42:24;;;;;;;;;;;7.30;99.90;;;;;;8387634;28;20287;-71
2021/10/13 05:46:26;;;;;;;;;;;7.30;99.90;;;;;;8407560;28;20320;-71
2021/10/13 05:50:28;;;;;;;;;;;7.30;99.90;;;;;;8396367;28;20007;-71
2021/10/13 05:54:30;;;;;;;;;;;7.30;99.90;;;;;;8392215;28;20374;-71
2021/10/13 05:58:31;;;;;;;;;;;7.30;99.90;;;;;;8391587;28;20345;-71
2021/10/13 06:02:34;;;;;;;;;;;7.30;99.90;;;;;;8390129;28;19924;-71
2021/10/13 06:06:35;;;;;;;;;;;7.30;99.90;;;;;;8390871;28;19952;-71
2021/10/13 06:10:37;;;;;;;;;;;7.30;99.90;;;;;;8391788;28;19920;-71
2021/10/13 06:14:39;;;;;;;;;;;7.30;99.90;;;;;;8388046;28;20299;-71
2021/10/13 06:18:40;;;;;;;;;;;7.30;99.90;;;;;;8395781;28;19928;-71
2021/10/13 06:22:42;;;;;;;;;;;7.40;99.90;;;;;;8386658;28;19925;-71
2021/10/13 06:26:44;;;;;;;;;;;7.40;99.90;;;;;;8387957;28;19925;-71
2021/10/13 06:30:45;;;;;;;;;;;7.40;99.90;;;;;;8406392;28;19928;-71
2021/10/13 06:34:47;;;;;;;;;;;7.50;99.90;;;;;;8390332;28;20275;-71
2021/10/13 06:38:49;;;;;;;;;;;7.50;99.90;;;;;;8406365;28;20412;-71
2021/10/13 06:42:50;;;;;;;;;;;7.50;99.90;;;;;;8393656;28;20338;-71
2021/10/13 06:46:54;;;;;;;;;;;7.50;99.90;;;;;;8395830;28;19920;-71
2021/10/13 06:50:55;;;;;;;;;;;7.60;99.90;;;;;;8390901;28;19932;-71
2021/10/13 06:54:57;;;;;;;;;;;7.60;99.90;;;;;;8382210;28;19957;-71
2021/10/13 06:58:59;;;;;;;;;;;7.60;99.90;;;;;;8389942;28;19924;-71
2021/10/13 07:03:01;;;;;;;;;;;7.60;99.90;;;;;;8383918;28;19924;-70
2021/10/13 07:07:03;;;;;;;;;;;7.60;99.90;;;;;;8390049;28;19924;-71
2021/10/13 07:11:06;;;;;;;;;;;7.60;99.90;;;;;;8390106;28;19928;-71
2021/10/13 07:15:08;;;;;;;;;;;7.70;99.90;;;;;;8385066;28;19920;-71
2021/10/13 07:19:09;;;;;;;;;;;7.80;99.90;;;;;;8371179;28;19921;-71
2021/10/13 07:23:11;;;;;;;;;;;7.80;99.90;;;;;;8393255;28;19974;-72
2021/10/13 07:27:13;;;;;;;;;;;7.90;99.90;;;;;;8378687;28;19925;-71
2021/10/13 07:31:15;;;;;;;;;;;8.00;99.90;;;;;;8357396;28;19924;-71
2021/10/13 07:35:16;;;;;;;;;;;8.00;99.90;;;;;;8355142;28;20376;-71
2021/10/13 07:39:21;;;;;;;;;;;8.00;99.90;;;;;;8355852;28;20277;-71
2021/10/13 07:43:23;;;;;;;;;;;8.20;99.90;;;;;;8358177;28;19929;-71
2021/10/13 07:47:29;;;;;;;;;;;8.40;99.90;;;;;;8355174;28;19924;-71
2021/10/13 07:51:30;;;;;;;;;;;8.60;99.90;;;;;;8355727;28;19971;-71
2021/10/13 07:55:32;;;;;;;;;;;8.90;99.90;;;;;;8355602;28;19920;-71
2021/10/13 07:59:34;;;;;;;;;;;9.10;99.90;;;;;;8357235;28;19921;-71
2021/10/13 08:03:35;;;;;;;;;;;9.30;99.90;;;;;;8354528;28;19924;-71
2021/10/13 08:07:37;;;;;;;;;;;9.40;99.90;;;;;;8356772;28;20402;-71
2021/10/13 08:11:39;;;;;;;;;;;9.50;99.90;;;;;;8369880;28;19929;-71
2021/10/13 08:15:40;;;;;;;;;;;9.70;99.90;;;;;;8356516;28;20293;-71
2021/10/13 08:19:42;;;;;;;;;;;9.80;99.90;;;;;;8354974;28;20199;-71
2021/10/13 08:23:44;;;;;;;;;;;10.00;99.90;;;;;;8357449;28;20026;-73
2021/10/13 08:27:46;;;;;;;;;;;10.20;99.90;;;;;;8353387;28;19925;-72
2021/10/13 08:31:47;;;;;;;;;;;10.30;99.90;;;;;;8352923;28;20745;-72
2021/10/13 08:35:49;;;;;;;;;;;10.50;99.90;;;;;;8366294;28;20391;-71
2021/10/13 08:39:51;;;;;;;;;;;10.60;99.90;;;;;;8360318;28;19924;-72
2021/10/13 08:43:53;;;;;;;;;;;10.70;99.90;;;;;;8338560;28;19928;-71
2021/10/13 08:47:56;;;;;;;;;;;10.80;99.90;;;;;;8355983;28;19975;-72
2021/10/13 08:51:57;;;;;;;;;;;10.90;99.90;;;;;;8353319;28;19921;-72
2021/10/13 08:56:00;;;;;;;;;;;10.90;99.90;;;;;;8336945;28;19964;-72
2021/10/13 09:00:03;;;;;;;;;;;10.90;99.90;;;;;;8353373;28;20356;-71
2021/10/13 09:04:04;;;;;;;;;;;11.00;99.90;;;;;;8369941;28;19940;-71
2021/10/13 09:08:07;;;;;;;;;;;11.10;99.90;;;;;;8352788;28;19929;-72
2021/10/13 09:12:08;;;;;;;;;;;11.20;99.90;;;;;;8357422;28;19925;-71
2021/10/13 09:16:15;;;;;;;;;;;11.30;99.90;;;;;;8343054;28;19974;-71
2021/10/13 09:20:17;;;;;;;;;;;11.40;99.90;;;;;;8351197;28;19956;-72
2021/10/13 09:24:19;;;;;;;;;;;11.60;99.90;;;;;;8368294;28;19920;-71
2021/10/13 09:28:21;;;;;;;;;;;11.70;99.90;;;;;;8355532;28;19986;-71
2021/10/13 09:32:26;;;;;;;;;;;11.90;99.90;;;;;;8355269;28;19920;-71
2021/10/13 09:36:44;;;;;;;;;;;11.90;99.90;;;;;;8352744;28;19921;-72
2021/10/13 09:40:47;;;;;;;;;;;11.90;99.90;;;;;;8350077;28;20004;-71
2021/10/13 09:44:53;;;;;;;;;;;11.90;99.90;;;;;;8343976;28;19924;-71
2021/10/13 09:48:58;;;;;;;;;;;11.90;99.90;;;;;;8344880;28;20386;-71
2021/10/13 09:53:13;;;;;;;;;;;12.00;99.90;;;;;;8350664;28;19920;-71
2021/10/13 09:57:24;;;;;;;;;;;12.10;99.90;;;;;;8348826;28;19936;-71
2021/10/13 10:01:28;;;;;;;;;;;12.20;99.90;;;;;;8352021;28;19929;-71
2021/10/13 10:05:31;;;;;;;;;;;12.30;99.90;;;;;;8353815;28;19963;-72
2021/10/13 10:09:32;;;;;;;;;;;12.30;99.90;;;;;;8349806;28;19943;-71
2021/10/13 10:13:41;;;;;;;;;;;12.40;99.90;;;;;;8352308;28;19929;-72
2021/10/13 10:17:42;;;;;;;;;;;12.40;99.90;;;;;;8363701;28;19928;-72
2021/10/13 10:21:58;;;;;;;;;;;12.60;99.90;;;;;;8351197;28;20002;-72
2021/10/13 10:26:23;;;;;;;;;;;12.80;99.90;;;;;;8354052;28;19920;-71
2021/10/13 10:30:25;;;;;;;;;;;13.10;99.90;;;;;;8345717;28;19960;-71
2021/10/13 10:34:27;;;;;;;;;;;13.40;99.90;;;;;;8359138;28;19920;-72
2021/10/13 10:38:45;;;;;;;;;;;13.60;99.90;;;;;;8339210;28;19928;-72
2021/10/13 10:42:55;;;;;;;;;;;13.60;99.90;;;;;;8356819;28;19936;-72
2021/10/13 10:47:04;;;;;;;;;;;13.60;99.90;;;;;;8351932;28;19927;-72
2021/10/13 10:51:05;;;;;;;;;;;13.70;99.90;;;;;;8356632;28;19921;-72
2021/10/13 10:55:08;;;;;;;;;;;13.80;99.90;;;;;;8371596;28;19928;-72
2021/10/13 10:59:14;;;;;;;;;;;13.90;99.90;;;;;;8356902;28;19944;-72
2021/10/13 11:03:18;;;;;;;;;;;14.00;99.90;;;;;;8356034;28;19921;-72
2021/10/13 11:07:24;;;;;;;;;;;14.00;99.90;;;;;;8354948;28;20015;-72
2021/10/13 11:11:27;;;;;;;;;;;14.00;99.90;;;;;;8355740;28;19943;-72
2021/10/13 11:15:30;;;;;;;;;;;13.90;99.90;;;;;;8356032;28;19921;-72
2021/10/13 11:19:33;;;;;;;;;;;13.80;99.90;;;;;;8350871;28;20367;-72
2021/10/13 11:23:39;;;;;;;;;;;13.80;99.90;;;;;;8356495;28;19921;-72
2021/10/13 11:27:41;;;;;;;;;;;13.60;99.90;;;;;;8354865;28;19921;-72
2021/10/13 11:31:43;;;;;;;;;;;13.50;99.90;;;;;;8354620;28;19924;-72
2021/10/13 11:35:48;;;;;;;;;;;13.40;99.90;;;;;;8355053;28;19928;-71
2021/10/13 11:39:49;;;;;;;;;;;13.30;99.90;;;;;;8354070;28;19947;-71
2021/10/13 11:43:51;;;;;;;;;;;13.20;99.90;;;;;;8356878;28;20375;-71
2021/10/13 11:47:53;;;;;;;;;;;13.10;99.90;;;;;;8356516;28;19936;-72
2021/10/13 11:52:24;;;;;;;;;;;13.00;99.90;;;;;;8353553;28;20439;-71
2021/10/13 11:56:25;;;;;;;;;;;13.10;99.90;;;;;;8344063;28;20292;-71
2021/10/13 12:00:31;;;;;;;;;;;13.10;99.90;;;;;;8353409;28;19982;-72
2021/10/13 12:04:33;;;;;;;;;;;13.10;99.90;;;;;;8352999;28;19951;-72
2021/10/13 12:08:36;;;;;;;;;;;13.20;99.90;;;;;;8354986;28;19928;-72
2021/10/13 12:12:38;;;;;;;;;;;13.30;99.90;;;;;;8352930;28;20368;-71
2021/10/13 12:16:42;;;;;;;;;;;13.40;99.90;;;;;;8355358;28;19974;-72
2021/10/13 12:20:51;;;;;;;;;;;13.40;99.90;;;;;;8364471;28;19931;-72
2021/10/13 12:24:53;;;;;;;;;;;13.50;99.90;;;;;;8352051;28;20250;-72
2021/10/13 12:28:56;;;;;;;;;;;13.60;99.90;;;;;;8352399;28;19931;-72
2021/10/13 12:33:01;;;;;;;;;;;13.80;99.90;;;;;;8350570;28;19924;-72
2021/10/13 12:37:06;;;;;;;;;;;13.90;99.90;;;;;;8351691;28;19932;-72
2021/10/13 12:41:08;;;;;;;;;;;13.90;99.90;;;;;;8367740;28;19951;-72
2021/10/13 12:45:10;;;;;;;;;;;13.90;99.90;;;;;;8352882;28;19924;-71
2021/10/13 12:49:15;;;;;;;;;;;13.80;99.90;;;;;;8352670;28;19920;-72
2021/10/13 12:53:22;;;;;;;;;;;13.70;99.90;;;;;;8352356;28;19948;-72
2021/10/13 12:57:25;;;;;;;;;;;13.60;99.90;;;;;;8353392;28;20543;-72
2021/10/13 13:01:27;;;;;;;;;;;13.60;99.90;;;;;;8349617;28;20430;-72
2021/10/13 13:05:28;;;;;;;;;;;13.50;99.90;;;;;;8351370;28;20004;-72
2021/10/13 13:09:30;;;;;;;;;;;13.40;99.90;;;;;;8353976;28;19924;-72
2021/10/13 13:13:32;;;;;;;;;;;13.40;99.90;;;;;;8353852;28;19921;-72
2021/10/13 13:17:33;;;;;;;;;;;13.40;99.90;;;;;;8351681;28;19928;-72
2021/10/13 13:21:35;;;;;;;;;;;13.40;99.90;;;;;;8347599;28;20390;-72
2021/10/13 13:25:37;;;;;;;;;;;13.40;99.90;;;;;;8352100;28;19925;-72
2021/10/13 13:29:39;;;;;;;;;;;13.30;99.90;;;;;;8350983;28;19928;-72
2021/10/13 13:33:41;;;;;;;;;;;13.30;99.90;;;;;;8352541;28;20586;-72
2021/10/13 13:37:42;;;;;;;;;;;13.40;99.90;;;;;;8350299;28;19927;-72
2021/10/13 13:41:44;;;;;;;;;;;13.40;99.90;;;;;;8350483;28;19931;-72
2021/10/13 13:45:47;;;;;;;;;;;13.40;99.90;;;;;;8355235;28;19924;-72
2021/10/13 13:49:49;;;;;;;;;;;13.40;99.90;;;;;;8359021;28;19951;-72
2021/10/13 13:53:50;;;;;;;;;;;13.50;99.90;;;;;;8349568;28;19920;-71
2021/10/13 13:57:53;;;;;;;;;;;13.50;99.90;;;;;;8356114;28;19936;-72
2021/10/13 14:01:55;;;;;;;;;;;13.50;99.90;;;;;;8357287;28;19962;-72
2021/10/13 14:05:56;;;;;;;;;;;13.50;99.90;;;;;;8366775;28;19920;-72
2021/10/13 14:09:58;;;;;;;;;;;13.50;99.90;;;;;;8359618;28;19921;-72
2021/10/13 14:14:00;;;;;;;;;;;13.50;99.90;;;;;;8356890;28;19928;-72
2021/10/13 14:18:02;;;;;;;;;;;13.50;99.90;;;;;;8350796;28;20247;-72
2021/10/13 14:22:03;;;;;;;;;;;13.50;99.90;;;;;;8351802;28;19924;-72
2021/10/13 14:26:05;;;;;;;;;;;13.60;99.90;;;;;;8347492;28;19932;-72
2021/10/13 14:30:07;;;;;;;;;;;13.60;99.90;;;;;;8345801;28;19932;-71
2021/10/13 14:34:09;;;;;;;;;;;13.60;99.90;;;;;;8348399;28;19920;-72
2021/10/13 14:38:10;;;;;;;;;;;13.70;99.90;;;;;;8348638;28;19933;-72
2021/10/13 14:42:15;;;;;;;;;;;13.80;99.90;;;;;;8372496;28;20376;-72
2021/10/13 14:46:17;;;;;;;;;;;13.80;99.90;;;;;;8355903;28;20020;-72
2021/10/13 14:50:19;;;;;;;;;;;13.80;99.90;;;;;;8353439;28;20372;-72
2021/10/13 14:54:21;;;;;;;;;;;13.90;99.90;;;;;;8355596;28;19929;-72
2021/10/13 14:58:22;;;;;;;;;;;14.00;99.90;;;;;;8351328;28;20365;-72
2021/10/13 15:02:24;;;;;;;;;;;14.00;99.90;;;;;;8359097;28;19928;-73
2021/10/13 15:06:26;;;;;;;;;;;14.00;99.90;;;;;;8359861;28;19964;-71
2021/10/13 15:10:28;;;;;;;;;;;14.00;99.90;;;;;;8364349;28;19966;-72
2021/10/13 15:14:30;;;;;;;;;;;14.00;99.90;;;;;;8358807;28;20248;-72
2021/10/13 15:18:32;;;;;;;;;;;13.90;99.90;;;;;;8350602;28;19924;-72
2021/10/13 15:22:33;;;;;;;;;;;13.90;99.90;;;;;;8353394;28;19978;-72
2021/10/13 15:26:35;;;;;;;;;;;13.80;99.90;;;;;;8373329;28;19925;-72
2021/10/13 15:30:37;;;;;;;;;;;13.80;99.90;;;;;;8357747;28;19920;-72
2021/10/13 15:34:39;;;;;;;;;;;13.70;99.90;;;;;;8358911;28;19931;-72
2021/10/13 15:38:40;;;;;;;;;;;13.70;99.90;;;;;;8356194;28;20299;-72
2021/10/13 15:42:52;;;;;;;;;;;13.70;99.90;;;;;;8356044;28;20025;-72
2021/10/13 15:46:53;;;;;;;;;;;13.60;99.90;;;;;;8367846;28;19943;-72
2021/10/13 15:50:56;;;;;;;;;;;13.60;99.90;;;;;;8354271;28;19925;-72
2021/10/13 15:54:58;;;;;;;;;;;13.60;99.90;;;;;;8354596;28;19920;-72
2021/10/13 15:59:00;;;;;;;;;;;13.50;99.90;;;;;;8356263;28;19928;-73
2021/10/13 16:03:02;;;;;;;;;;;13.50;99.90;;;;;;8357340;28;19979;-72
2021/10/13 16:07:03;;;;;;;;;;;13.50;99.90;;;;;;8370701;28;19928;-72
2021/10/13 16:11:05;;;;;;;;;;;13.50;99.90;;;;;;8376236;28;20221;-72
2021/10/13 16:15:08;;;;;;;;;;;13.50;99.90;;;;;;8371029;28;19928;-72
2021/10/13 16:19:10;;;;;;;;;;;13.50;99.90;;;;;;8368434;28;19925;-72
2021/10/13 16:23:12;;;;;;;;;;;13.40;99.90;;;;;;8365734;28;19924;-72
2021/10/13 16:27:14;;;;;;;;;;;13.40;99.90;;;;;;8359788;28;19970;-72
2021/10/13 16:31:16;;;;;;;;;;;13.30;99.90;;;;;;8361083;28;19928;-72
2021/10/13 16:35:19;;;;;;;;;;;13.30;99.90;;;;;;8361362;28;19920;-72
2021/10/13 16:39:21;;;;;;;;;;;13.20;99.90;;;;;;8377591;28;20381;-72
2021/10/13 16:43:22;;;;;;;;;;;13.20;99.90;;;;;;8349058;28;19924;-72
2021/10/13 16:47:24;;;;;;;;;;;13.20;99.90;;;;;;8368041;28;20004;-71
2021/10/13 16:51:26;;;;;;;;;;;13.20;99.90;;;;;;8375231;28;20637;-72
2021/10/13 16:55:28;;;;;;;;;;;13.10;99.90;;;;;;8373594;28;20370;-72
2021/10/13 16:59:29;;;;;;;;;;;13.10;99.90;;;;;;8359957;28;20007;-72
2021/10/13 17:03:31;;;;;;;;;;;13.10;99.90;;;;;;8357526;28;19974;-72
2021/10/13 17:07:34;;;;;;;;;;;13.10;99.90;;;;;;8362005;28;19928;-72
2021/10/13 17:11:36;;;;;;;;;;;13.10;99.90;;;;;;8362959;28;19934;-72
2021/10/13 17:15:38;;;;;;;;;;;13.10;99.90;;;;;;8352732;28;19932;-72
2021/10/13 17:19:39;;;;;;;;;;;13.00;99.90;;;;;;8371594;28;19928;-71
2021/10/13 17:23:41;;;;;;;;;;;13.00;99.90;;;;;;8373038;28;20003;-72
2021/10/13 17:27:43;;;;;;;;;;;13.00;99.90;;;;;;8362128;28;19935;-72
2021/10/13 17:31:44;;;;;;;;;;;13.00;99.90;;;;;;8360618;28;20273;-72
2021/10/13 17:35:46;;;;;;;;;;;13.00;99.90;;;;;;8357392;28;20367;-72
2021/10/13 17:39:51;;;;;;;;;;;13.00;99.90;;;;;;8368602;28;19921;-72
2021/10/13 17:43:52;;;;;;;;;;;12.90;99.90;;;;;;8355750;28;19921;-72
2021/10/13 17:47:54;;;;;;;;;;;12.90;99.90;;;;;;8365128;28;19921;-72
2021/10/13 17:51:56;;;;;;;;;;;12.90;99.90;;;;;;8362287;28;19924;-72
2021/10/13 17:55:58;;;;;;;;;;;12.90;99.90;;;;;;8364584;28;20402;-71
2021/10/13 17:59:59;;;;;;;;;;;12.90;99.90;;;;;;8356034;28;19933;-72
2021/10/13 18:04:01;;;;;;;;;;;12.90;99.90;;;;;;8361395;28;19924;-72
2021/10/13 18:08:03;;;;;;;;;;;12.90;99.90;;;;;;8363630;28;19936;-71
2021/10/13 18:12:05;;;;;;;;;;;12.90;99.90;;;;;;8364614;28;19920;-72
2021/10/13 18:16:06;;;;;;;;;;;12.90;99.90;;;;;;8358592;28;20449;-72
2021/10/13 18:20:08;;;;;;;;;;;12.90;99.90;;;;;;8336892;28;20296;-71
2021/10/13 18:24:10;;;;;;;;;;;12.90;99.90;;;;;;8355686;28;19971;-72
2021/10/13 18:28:13;;;;;;;;;;;12.90;99.90;;;;;;8353806;28;19943;-72
2021/10/13 18:32:16;;;;;;;;;;;12.80;99.90;;;;;;8375596;28;19921;-72
2021/10/13 18:36:18;;;;;;;;;;;12.70;99.90;;;;;;8357068;28;19978;-72
2021/10/13 18:40:20;;;;;;;;;;;12.70;99.90;;;;;;8368133;28;19928;-71
2021/10/13 18:44:21;;;;;;;;;;;12.70;99.90;;;;;;8356474;28;20388;-72
2021/10/13 18:48:23;;;;;;;;;;;12.60;99.90;;;;;;8351889;28;19936;-72
2021/10/13 18:52:25;;;;;;;;;;;12.60;99.90;;;;;;8342977;28;19924;-72
2021/10/13 18:56:27;;;;;;;;;;;12.60;99.90;;;;;;8361447;28;19963;-73
2021/10/13 19:00:29;;;;;;;;;;;12.60;99.90;;;;;;8366957;28;19920;-72
2021/10/13 19:04:31;;;;;;;;;;;12.60;99.90;;;;;;8367944;28;19959;-72
2021/10/13 19:08:33;;;;;;;;;;;12.60;99.90;;;;;;8367542;28;20673;-72
2021/10/13 19:12:37;;;;;;;;;;;12.60;99.90;;;;;;8358970;28;19932;-72
2021/10/13 19:16:39;;;;;;;;;;;12.70;99.90;;;;;;8360759;28;19962;-71
2021/10/13 19:20:41;;;;;;;;;;;12.70;99.90;;;;;;8372181;28;20265;-71
2021/10/13 19:24:42;;;;;;;;;;;12.70;99.90;;;;;;8369239;28;19962;-71
2021/10/13 19:28:44;;;;;;;;;;;12.70;99.90;;;;;;8364827;28;20379;-71
2021/10/13 19:32:46;;;;;;;;;;;12.70;99.90;;;;;;8367836;28;19920;-71
2021/10/13 19:36:48;;;;;;;;;;;12.60;99.90;;;;;;8365319;28;20450;-71
2021/10/13 19:40:49;;;;;;;;;;;12.60;99.90;;;;;;8364482;28;20241;-71
2021/10/13 19:44:51;;;;;;;;;;;12.50;99.90;;;;;;8356317;28;20390;-73
2021/10/13 19:48:53;;;;;;;;;;;12.50;99.90;;;;;;8370516;28;19920;-71
2021/10/13 19:52:55;;;;;;;;;;;12.50;99.90;;;;;;8365241;28;19925;-72
2021/10/13 19:56:57;;;;;;;;;;;12.50;99.90;;;;;;8385823;28;19932;-71
2021/10/13 20:00:58;;;;;;;;;;;12.40;99.90;;;;;;8363283;28;19920;-71
2021/10/13 20:05:00;;;;;;;;;;;12.40;99.90;;;;;;8368834;28;20315;-71
2021/10/13 20:09:02;;;;;;;;;;;12.30;99.90;;;;;;8366637;28;20354;-70
2021/10/13 20:13:04;;;;;;;;;;;12.30;99.90;;;;;;8367702;28;19920;-71
2021/10/13 20:17:05;;;;;;;;;;;12.20;99.90;;;;;;8361890;28;20378;-71
2021/10/13 20:21:09;;;;;;;;;;;12.20;99.90;;;;;;8364328;28;19920;-71
2021/10/13 20:25:11;;;;;;;;;;;12.20;99.90;;;;;;8369768;28;19920;-71
2021/10/13 20:29:14;;;;;;;;;;;12.10;99.90;;;;;;8363758;28;19928;-71
2021/10/13 20:33:15;;;;;;;;;;;12.10;99.90;;;;;;8368900;28;19921;-71
2021/10/13 20:37:17;;;;;;;;;;;12.10;99.90;;;;;;8367348;28;19947;-71
2021/10/13 20:41:19;;;;;;;;;;;12.10;99.90;;;;;;8372136;28;19928;-72
2021/10/13 20:45:32;;;;;;;;;;;12.10;99.90;;;;;;8362675;28;19924;-72
2021/10/13 20:49:34;;;;;;;;;;;12.10;99.90;;;;;;8369402;28;20404;-72
2021/10/13 20:53:36;;;;;;;;;;;12.10;99.90;;;;;;8368256;28;19921;-71
2021/10/13 20:57:38;;;;;;;;;;;12.10;99.90;;;;;;8363522;28;19994;-72
2021/10/13 21:01:40;;;;;;;;;;;12.10;99.90;;;;;;8373532;28;20321;-72
2021/10/13 21:05:41;;;;;;;;;;;12.10;99.90;;;;;;8376110;28;19924;-72
2021/10/13 21:09:44;;;;;;;;;;;12.10;99.90;;;;;;8389300;28;19920;-71
2021/10/13 21:13:46;;;;;;;;;;;12.10;99.90;;;;;;8392078;28;19985;-72
2021/10/13 21:17:48;;;;;;;;;;;12.10;99.90;;;;;;8387152;28;20367;-72
2021/10/13 21:21:50;;;;;;;;;;;12.10;99.90;;;;;;8386988;28;19928;-72
2021/10/13 21:25:52;;;;;;;;;;;12.20;99.90;;;;;;8388817;28;19928;-71
2021/10/13 21:29:53;;;;;;;;;;;12.10;99.90;;;;;;8391240;28;20045;-72
2021/10/13 21:33:56;;;;;;;;;;;12.10;99.90;;;;;;8402719;28;19920;-72
2021/10/13 21:37:58;;;;;;;;;;;12.20;99.90;;;;;;8382428;28;19928;-71
2021/10/13 21:41:59;;;;;;;;;;;12.20;99.90;;;;;;8385791;28;20272;-72
2021/10/13 21:46:01;;;;;;;;;;;12.10;99.90;;;;;;8388090;28;20352;-72
2021/10/13 21:50:03;;;;;;;;;;;12.10;99.90;;;;;;8387617;28;19932;-71
2021/10/13 21:54:07;;;;;;;;;;;12.10;99.90;;;;;;8391857;28;19920;-71
2021/10/13 21:58:09;;;;;;;;;;;12.10;99.90;;;;;;8388935;28;19928;-72
2021/10/13 22:02:11;;;;;;;;;;;12.10;99.90;;;;;;8381300;28;19920;-72
2021/10/13 22:06:13;;;;;;;;;;;12.10;99.90;;;;;;8389725;28;19940;-71
2021/10/13 22:10:14;;;;;;;;;;;12.10;99.90;;;;;;8400929;28;20325;-72
2021/10/13 22:14:17;;;;;;;;;;;12.10;99.90;;;;;;8402457;28;19920;-71
2021/10/13 22:18:18;;;;;;;;;;;12.10;99.90;;;;;;8398748;28;19933;-71
2021/10/13 22:22:21;;;;;;;;;;;12.10;99.90;;;;;;8382259;28;19920;-71
2021/10/13 22:26:22;;;;;;;;;;;12.10;99.90;;;;;;8401809;28;19921;-71
2021/10/13 22:30:24;;;;;;;;;;;12.10;99.90;;;;;;8392987;28;20401;-72
2021/10/13 22:34:26;;;;;;;;;;;12.10;99.90;;;;;;8395400;28;19925;-72
2021/10/13 22:38:27;;;;;;;;;;;12.10;99.90;;;;;;8394335;28;19920;-71
2021/10/13 22:42:29;;;;;;;;;;;12.10;99.90;;;;;;8393673;28;19920;-72
2021/10/13 22:46:31;;;;;;;;;;;12.10;99.90;;;;;;8388939;28;19920;-72
2021/10/13 22:50:33;;;;;;;;;;;12.10;99.90;;;;;;8389813;28;19920;-72
2021/10/13 22:54:39;;;;;;;;;;;12.10;99.90;;;;;;8390977;28;19920;-72
2021/10/13 22:58:40;;;;;;;;;;;12.10;99.90;;;;;;8387540;28;19927;-72
2021/10/13 23:02:42;;;;;;;;;;;12.10;99.90;;;;;;8393326;28;19920;-72
2021/10/13 23:06:44;;;;;;;;;;;12.10;99.90;;;;;;8393978;28;19931;-71
2021/10/13 23:10:45;;;;;;;;;;;12.10;99.90;;;;;;8395746;28;19920;-71
2021/10/13 23:14:47;;;;;;;;;;;12.10;99.90;;;;;;8386978;28;19946;-72
2021/10/13 23:18:52;;;;;;;;;;;12.10;99.90;;;;;;8386161;28;19921;-72
2021/10/13 23:22:54;;;;;;;;;;;12.10;99.90;;;;;;8361341;28;19925;-71
2021/10/13 23:26:55;;;;;;;;;;;12.20;99.90;;;;;;8387136;28;19920;-72
2021/10/13 23:30:57;;;;;;;;;;;12.20;99.90;;;;;;8387261;28;19920;-71
2021/10/13 23:34:59;;;;;;;;;;;12.30;99.90;;;;;;8389428;28;19924;-72